This demonstration page uses our WeatherBlox Daily Observations layout. Learn more.

41.55636, -103.73856

Hourly Observations for March 26, 2015

Temp ( °F °C ) Dew Point ( °F °C ) Humidity (%) Winds ( mph kmh ) Pressure ( in mb ) Visibility ( mi km ) Precip ( " mm )
12:53 am 00:53 Clear 26 -3.3 22 -5.6 84 84 NNE 3 6 30.25 1024 10 16.0934 0 0
1:53 am 01:53 Partly Cloudy 27 -2.8 22 -5.6 81 81 NNE 6 9 30.24 1024 10 16.0934 0 0
2:53 am 02:53 Clear 24 -4.4 21 -6.1 88 88 N 6 9 30.21 1023 10 16.0934 0 0
3:53 am 03:53 Clear 25 -3.9 21 -6.1 85 85 NE 3 6 30.19 1022 10 16.0934 0 0
4:53 am 04:53 Cloudy 25 -3.9 22 -5.6 88 88 WNW 5 7 30.2 1023 10 16.0934 0 0
5:53 am 05:53 Cloudy 27 -2.8 25 -3.9 92 92 WNW 6 9 30.19 1023 10 16.0934 0 0
6:53 am 06:53 Cloudy 29 -1.7 26 -3.3 89 89 NNW 6 9 30.2 1023 10 16.0934 0 0
7:53 am 07:53 Cloudy 32 0 28 -2.2 85 85 W 9 15 30.2 1023 10 16.0934 0 0
8:53 am 08:53 Cloudy 35 1.7 28 -2.2 76 76 W 9 15 30.2 1023 10 16.0934 0 0
9:53 am 09:53 Cloudy 42 5.6 29 -1.7 60 60 W 15 24 30.2 1023 10 16.0934 0 0
10:53 am 10:53 Cloudy 48 8.9 27 -2.8 44 44 WNW 17 28 30.17 1022 10 16.0934 0 0
11:53 am 11:53 Cloudy 51 10.6 32 0 48 48 NW 29 46 30.19 1022 10 16.0934 0 0
12:53 pm 12:53 Cloudy 53 11.7 30 -1.1 41 41 NW 28 44 30.16 1022 10 16.0934 0 0
1:53 pm 13:53 Cloudy 53 11.7 32 0 45 45 NNW 25 41 30.16 1021 10 16.0934 0 0
2:53 pm 14:53 Cloudy 53 11.7 31 -0.6 43 43 NNW 25 41 30.14 1021 10 16.0934 0 0
3:53 pm 15:53 Cloudy 54 12.2 33 0.6 45 45 NNW 24 39 30.14 1021 10 16.0934 0 0
4:53 pm 16:53 Cloudy 53 11.7 33 0.6 47 47 NNW 22 35 30.14 1021 10 16.0934 0 0
5:53 pm 17:53 Mostly Cloudy 53 11.7 34 1.1 48 48 NNW 18 30 30.13 1020 10 16.0934 0 0
6:53 pm 18:53 Cloudy 50 10 34 1.1 54 54 N 18 30 30.12 1020 10 16.0934 0 0
7:53 pm 19:53 Cloudy 46 7.8 34 1.1 63 63 ENE 5 7 30.17 1022 10 16.0934 0 0
8:53 pm 20:53 Cloudy 45 7.2 34 1.1 66 66 SE 5 7 30.17 1022 10 16.0934 0 0
9:53 pm 21:53 Cloudy 44 6.7 34 1.1 68 68 SSW 5 7 30.15 1021 10 16.0934 0 0
10:53 pm 22:53 Cloudy 42 5.6 34 1.1 73 73 E 5 7 30.15 1021 10 16.0934 0 0
11:53 pm 23:53 Mostly Cloudy 41 5 32 0 70 70 ESE 5 7 30.16 1021 10 16.0934 0 0.0254

Powered by AerisWeather